sensor_id;sensor_type;location;lat;lon;timestamp;temperature;humidity
37560;DHT22;23398;50.928;7.084;2023-04-24T00:00:24;15.20;63.10
37560;DHT22;23398;50.928;7.084;2023-04-24T00:02:49;15.30;63.40
37560;DHT22;23398;50.928;7.084;2023-04-24T00:05:16;15.20;63.20
37560;DHT22;23398;50.928;7.084;2023-04-24T00:07:43;15.20;63.30
37560;DHT22;23398;50.928;7.084;2023-04-24T00:10:10;15.20;63.40
37560;DHT22;23398;50.928;7.084;2023-04-24T00:12:36;15.20;63.50
37560;DHT22;23398;50.928;7.084;2023-04-24T00:15:02;15.40;63.80
37560;DHT22;23398;50.928;7.084;2023-04-24T00:17:28;15.20;63.70
37560;DHT22;23398;50.928;7.084;2023-04-24T00:19:53;15.20;63.90
37560;DHT22;23398;50.928;7.084;2023-04-24T00:22:27;15.20;63.90
37560;DHT22;23398;50.928;7.084;2023-04-24T00:24:53;15.20;64.00
37560;DHT22;23398;50.928;7.084;2023-04-24T00:27:18;15.20;64.10
37560;DHT22;23398;50.928;7.084;2023-04-24T00:29:44;15.20;64.20
37560;DHT22;23398;50.928;7.084;2023-04-24T00:32:09;15.20;64.30
37560;DHT22;23398;50.928;7.084;2023-04-24T00:34:35;15.20;64.40
37560;DHT22;23398;50.928;7.084;2023-04-24T00:37:00;15.20;64.30
37560;DHT22;23398;50.928;7.084;2023-04-24T00:39:26;15.20;64.30
37560;DHT22;23398;50.928;7.084;2023-04-24T00:41:52;15.20;64.40
37560;DHT22;23398;50.928;7.084;2023-04-24T00:44:18;15.20;64.50
37560;DHT22;23398;50.928;7.084;2023-04-24T00:46:44;15.20;64.60
37560;DHT22;23398;50.928;7.084;2023-04-24T00:49:12;15.20;64.80
37560;DHT22;23398;50.928;7.084;2023-04-24T00:51:37;15.10;64.80
37560;DHT22;23398;50.928;7.084;2023-04-24T00:54:03;15.10;65.10
37560;DHT22;23398;50.928;7.084;2023-04-24T00:56:28;14.80;65.10
37560;DHT22;23398;50.928;7.084;2023-04-24T00:58:54;15.10;65.80
37560;DHT22;23398;50.928;7.084;2023-04-24T01:01:21;15.10;66.10
37560;DHT22;23398;50.928;7.084;2023-04-24T01:03:48;15.10;66.00
37560;DHT22;23398;50.928;7.084;2023-04-24T01:06:14;15.10;66.00
37560;DHT22;23398;50.928;7.084;2023-04-24T01:08:41;15.10;65.90
37560;DHT22;23398;50.928;7.084;2023-04-24T01:11:06;15.20;66.00
37560;DHT22;23398;50.928;7.084;2023-04-24T01:13:33;15.20;65.60
37560;DHT22;23398;50.928;7.084;2023-04-24T01:15:59;15.20;65.60
37560;DHT22;23398;50.928;7.084;2023-04-24T01:18:25;15.20;65.50
37560;DHT22;23398;50.928;7.084;2023-04-24T01:20:54;15.30;65.60
37560;DHT22;23398;50.928;7.084;2023-04-24T01:23:22;15.30;65.30
37560;DHT22;23398;50.928;7.084;2023-04-24T01:25:48;15.30;64.90
37560;DHT22;23398;50.928;7.084;2023-04-24T01:28:14;15.30;64.40
37560;DHT22;23398;50.928;7.084;2023-04-24T01:30:41;15.30;64.20
37560;DHT22;23398;50.928;7.084;2023-04-24T01:33:07;15.40;64.30
37560;DHT22;23398;50.928;7.084;2023-04-24T01:35:33;15.40;64.00
37560;DHT22;23398;50.928;7.084;2023-04-24T01:37:58;15.40;63.80
37560;DHT22;23398;50.928;7.084;2023-04-24T01:40:24;15.40;63.70
37560;DHT22;23398;50.928;7.084;2023-04-24T01:42:50;15.40;63.70
37560;DHT22;23398;50.928;7.084;2023-04-24T01:45:16;15.40;63.60
37560;DHT22;23398;50.928;7.084;2023-04-24T01:47:42;15.40;63.30
37560;DHT22;23398;50.928;7.084;2023-04-24T01:50:08;15.40;63.20
37560;DHT22;23398;50.928;7.084;2023-04-24T01:52:34;15.40;63.20
37560;DHT22;23398;50.928;7.084;2023-04-24T01:55:02;15.40;63.80
37560;DHT22;23398;50.928;7.084;2023-04-24T01:57:29;15.40;62.80
37560;DHT22;23398;50.928;7.084;2023-04-24T01:59:56;15.40;62.30
37560;DHT22;23398;50.928;7.084;2023-04-24T02:02:22;15.30;61.70
37560;DHT22;23398;50.928;7.084;2023-04-24T02:04:49;15.30;61.60
37560;DHT22;23398;50.928;7.084;2023-04-24T02:07:15;15.30;61.30
37560;DHT22;23398;50.928;7.084;2023-04-24T02:09:41;15.30;61.00
37560;DHT22;23398;50.928;7.084;2023-04-24T02:12:07;15.30;60.80
37560;DHT22;23398;50.928;7.084;2023-04-24T02:14:32;15.30;60.90
37560;DHT22;23398;50.928;7.084;2023-04-24T02:16:58;15.20;60.60
37560;DHT22;23398;50.928;7.084;2023-04-24T02:19:24;15.20;60.40
37560;DHT22;23398;50.928;7.084;2023-04-24T02:21:49;15.10;60.20
37560;DHT22;23398;50.928;7.084;2023-04-24T02:24:15;15.10;60.20
37560;DHT22;23398;50.928;7.084;2023-04-24T02:26:41;15.10;60.10
37560;DHT22;23398;50.928;7.084;2023-04-24T02:29:07;15.00;60.00
37560;DHT22;23398;50.928;7.084;2023-04-24T02:31:33;14.90;59.90
37560;DHT22;23398;50.928;7.084;2023-04-24T02:33:59;14.80;59.90
37560;DHT22;23398;50.928;7.084;2023-04-24T02:36:25;14.70;59.80
37560;DHT22;23398;50.928;7.084;2023-04-24T02:38:50;14.60;59.60
37560;DHT22;23398;50.928;7.084;2023-04-24T02:41:16;14.60;59.60
37560;DHT22;23398;50.928;7.084;2023-04-24T02:43:41;14.40;59.60
37560;DHT22;23398;50.928;7.084;2023-04-24T02:46:07;14.30;59.80
37560;DHT22;23398;50.928;7.084;2023-04-24T02:48:33;14.10;59.80
37560;DHT22;23398;50.928;7.084;2023-04-24T02:50:58;14.00;60.00
37560;DHT22;23398;50.928;7.084;2023-04-24T02:53:24;13.90;60.00
37560;DHT22;23398;50.928;7.084;2023-04-24T02:55:49;13.80;60.30
37560;DHT22;23398;50.928;7.084;2023-04-24T02:58:15;13.70;60.60
37560;DHT22;23398;50.928;7.084;2023-04-24T03:00:41;13.60;60.70
37560;DHT22;23398;50.928;7.084;2023-04-24T03:03:06;13.50;61.00
37560;DHT22;23398;50.928;7.084;2023-04-24T03:05:32;13.50;61.40
37560;DHT22;23398;50.928;7.084;2023-04-24T03:07:58;13.50;61.70
37560;DHT22;23398;50.928;7.084;2023-04-24T03:10:23;13.40;61.90
37560;DHT22;23398;50.928;7.084;2023-04-24T03:12:49;13.40;61.90
37560;DHT22;23398;50.928;7.084;2023-04-24T03:15:15;13.50;62.10
37560;DHT22;23398;50.928;7.084;2023-04-24T03:17:41;13.40;62.00
37560;DHT22;23398;50.928;7.084;2023-04-24T03:20:07;13.50;62.10
37560;DHT22;23398;50.928;7.084;2023-04-24T03:22:34;13.60;62.30
37560;DHT22;23398;50.928;7.084;2023-04-24T03:25:00;13.60;62.00
37560;DHT22;23398;50.928;7.084;2023-04-24T03:27:26;13.60;61.60
37560;DHT22;23398;50.928;7.084;2023-04-24T03:29:51;13.70;61.50
37560;DHT22;23398;50.928;7.084;2023-04-24T03:32:23;13.70;61.30
37560;DHT22;23398;50.928;7.084;2023-04-24T03:34:49;13.70;61.00
37560;DHT22;23398;50.928;7.084;2023-04-24T03:37:15;13.70;60.90
37560;DHT22;23398;50.928;7.084;2023-04-24T03:39:41;13.70;60.70
37560;DHT22;23398;50.928;7.084;2023-04-24T03:42:06;13.70;60.70
37560;DHT22;23398;50.928;7.084;2023-04-24T03:44:34;13.70;60.70
37560;DHT22;23398;50.928;7.084;2023-04-24T03:46:59;13.60;60.60
37560;DHT22;23398;50.928;7.084;2023-04-24T03:49:25;13.60;60.60
37560;DHT22;23398;50.928;7.084;2023-04-24T03:51:51;13.60;60.70
37560;DHT22;23398;50.928;7.084;2023-04-24T03:54:18;13.60;60.60
37560;DHT22;23398;50.928;7.084;2023-04-24T03:56:43;13.60;60.50
37560;DHT22;23398;50.928;7.084;2023-04-24T03:59:09;13.50;60.40
37560;DHT22;23398;50.928;7.084;2023-04-24T04:01:35;13.50;60.70
37560;DHT22;23398;50.928;7.084;2023-04-24T04:04:08;13.50;60.80
37560;DHT22;23398;50.928;7.084;2023-04-24T04:06:33;13.50;60.90
37560;DHT22;23398;50.928;7.084;2023-04-24T04:09:00;13.40;60.90
37560;DHT22;23398;50.928;7.084;2023-04-24T04:11:25;13.40;61.00
37560;DHT22;23398;50.928;7.084;2023-04-24T04:13:51;13.40;61.30
37560;DHT22;23398;50.928;7.084;2023-04-24T04:16:17;13.50;61.40
37560;DHT22;23398;50.928;7.084;2023-04-24T04:18:43;13.40;61.30
37560;DHT22;23398;50.928;7.084;2023-04-24T04:21:09;13.50;61.40
37560;DHT22;23398;50.928;7.084;2023-04-24T04:23:35;13.50;61.40
37560;DHT22;23398;50.928;7.084;2023-04-24T04:26:01;13.50;61.40
37560;DHT22;23398;50.928;7.084;2023-04-24T04:28:27;13.50;61.40
37560;DHT22;23398;50.928;7.084;2023-04-24T04:30:53;13.60;61.40
37560;DHT22;23398;50.928;7.084;2023-04-24T04:33:23;13.50;61.30
37560;DHT22;23398;50.928;7.084;2023-04-24T04:35:49;13.60;61.40
37560;DHT22;23398;50.928;7.084;2023-04-24T04:38:15;13.60;61.30
37560;DHT22;23398;50.928;7.084;2023-04-24T04:40:42;13.60;61.20
37560;DHT22;23398;50.928;7.084;2023-04-24T04:43:08;13.60;61.20
37560;DHT22;23398;50.928;7.084;2023-04-24T04:45:33;13.60;61.20
37560;DHT22;23398;50.928;7.084;2023-04-24T04:48:00;13.70;61.40
37560;DHT22;23398;50.928;7.084;2023-04-24T04:50:27;13.70;61.40
37560;DHT22;23398;50.928;7.084;2023-04-24T04:52:53;13.70;61.30
37560;DHT22;23398;50.928;7.084;2023-04-24T04:55:18;13.70;61.20
37560;DHT22;23398;50.928;7.084;2023-04-24T04:57:45;13.70;61.30
37560;DHT22;23398;50.928;7.084;2023-04-24T05:00:12;13.80;61.30
37560;DHT22;23398;50.928;7.084;2023-04-24T05:02:40;13.70;61.20
37560;DHT22;23398;50.928;7.084;2023-04-24T05:05:06;13.70;61.00
37560;DHT22;23398;50.928;7.084;2023-04-24T05:07:32;13.70;61.10
37560;DHT22;23398;50.928;7.084;2023-04-24T05:09:58;13.70;61.40
37560;DHT22;23398;50.928;7.084;2023-04-24T05:12:24;13.70;61.30
37560;DHT22;23398;50.928;7.084;2023-04-24T05:14:49;13.70;61.30
37560;DHT22;23398;50.928;7.084;2023-04-24T05:17:15;13.70;61.50
37560;DHT22;23398;50.928;7.084;2023-04-24T05:19:41;13.70;61.50
37560;DHT22;23398;50.928;7.084;2023-04-24T05:22:07;13.70;61.40
37560;DHT22;23398;50.928;7.084;2023-04-24T05:24:33;13.70;61.40
37560;DHT22;23398;50.928;7.084;2023-04-24T05:27:00;13.70;61.70
37560;DHT22;23398;50.928;7.084;2023-04-24T05:29:25;13.70;61.70
37560;DHT22;23398;50.928;7.084;2023-04-24T05:31:56;13.70;61.60
37560;DHT22;23398;50.928;7.084;2023-04-24T05:34:21;13.70;61.50
37560;DHT22;23398;50.928;7.084;2023-04-24T05:36:47;13.80;61.70
37560;DHT22;23398;50.928;7.084;2023-04-24T05:39:14;13.70;61.60
37560;DHT22;23398;50.928;7.084;2023-04-24T05:41:40;13.70;61.80
37560;DHT22;23398;50.928;7.084;2023-04-24T05:44:06;13.70;62.00
37560;DHT22;23398;50.928;7.084;2023-04-24T05:46:31;13.80;62.20
37560;DHT22;23398;50.928;7.084;2023-04-24T05:48:57;13.70;62.20
37560;DHT22;23398;50.928;7.084;2023-04-24T05:51:23;13.70;62.30
37560;DHT22;23398;50.928;7.084;2023-04-24T05:53:48;13.70;62.30
37560;DHT22;23398;50.928;7.084;2023-04-24T05:56:14;13.70;62.30
37560;DHT22;23398;50.928;7.084;2023-04-24T05:58:40;13.70;62.30
37560;DHT22;23398;50.928;7.084;2023-04-24T06:01:06;13.70;62.30
37560;DHT22;23398;50.928;7.084;2023-04-24T06:03:32;13.70;62.30
37560;DHT22;23398;50.928;7.084;2023-04-24T06:05:58;13.70;62.40
37560;DHT22;23398;50.928;7.084;2023-04-24T06:08:23;13.70;62.30
37560;DHT22;23398;50.928;7.084;2023-04-24T06:10:49;13.70;62.50
37560;DHT22;23398;50.928;7.084;2023-04-24T06:13:15;13.70;62.40
37560;DHT22;23398;50.928;7.084;2023-04-24T06:15:41;13.70;62.50
37560;DHT22;23398;50.928;7.084;2023-04-24T06:18:07;13.70;62.80
37560;DHT22;23398;50.928;7.084;2023-04-24T06:20:33;13.80;63.10
37560;DHT22;23398;50.928;7.084;2023-04-24T06:22:58;13.70;63.30
37560;DHT22;23398;50.928;7.084;2023-04-24T06:25:27;13.70;63.60
37560;DHT22;23398;50.928;7.084;2023-04-24T06:27:54;13.70;63.70
37560;DHT22;23398;50.928;7.084;2023-04-24T06:30:19;13.70;63.80
37560;DHT22;23398;50.928;7.084;2023-04-24T06:32:45;13.70;64.00
37560;DHT22;23398;50.928;7.084;2023-04-24T06:35:10;13.70;64.00
37560;DHT22;23398;50.928;7.084;2023-04-24T06:37:41;13.80;64.30
37560;DHT22;23398;50.928;7.084;2023-04-24T06:40:07;13.80;64.90
37560;DHT22;23398;50.928;7.084;2023-04-24T06:42:33;13.80;65.50
37560;DHT22;23398;50.928;7.084;2023-04-24T06:45:00;13.80;65.80
37560;DHT22;23398;50.928;7.084;2023-04-24T06:47:26;13.80;65.80
37560;DHT22;23398;50.928;7.084;2023-04-24T06:49:51;13.80;66.10
37560;DHT22;23398;50.928;7.084;2023-04-24T06:52:18;13.80;66.20
37560;DHT22;23398;50.928;7.084;2023-04-24T06:54:43;13.80;66.00
37560;DHT22;23398;50.928;7.084;2023-04-24T06:57:09;13.80;66.20
37560;DHT22;23398;50.928;7.084;2023-04-24T06:59:36;13.70;66.50
37560;DHT22;23398;50.928;7.084;2023-04-24T07:02:01;13.70;66.60
37560;DHT22;23398;50.928;7.084;2023-04-24T07:04:28;13.60;66.80
37560;DHT22;23398;50.928;7.084;2023-04-24T07:06:54;13.60;67.20
37560;DHT22;23398;50.928;7.084;2023-04-24T07:09:21;13.60;67.90
37560;DHT22;23398;50.928;7.084;2023-04-24T07:11:47;13.60;68.00
37560;DHT22;23398;50.928;7.084;2023-04-24T07:14:13;13.60;68.20
37560;DHT22;23398;50.928;7.084;2023-04-24T07:16:39;13.60;68.60
37560;DHT22;23398;50.928;7.084;2023-04-24T07:19:05;13.60;69.00
37560;DHT22;23398;50.928;7.084;2023-04-24T07:21:30;13.60;68.90
37560;DHT22;23398;50.928;7.084;2023-04-24T07:23:57;13.60;68.70
37560;DHT22;23398;50.928;7.084;2023-04-24T07:26:23;13.60;68.90
37560;DHT22;23398;50.928;7.084;2023-04-24T07:28:49;13.50;68.80
37560;DHT22;23398;50.928;7.084;2023-04-24T07:31:14;13.50;69.10
37560;DHT22;23398;50.928;7.084;2023-04-24T07:33:40;13.60;69.50
37560;DHT22;23398;50.928;7.084;2023-04-24T07:36:06;13.50;69.60
37560;DHT22;23398;50.928;7.084;2023-04-24T07:38:31;13.50;70.00
37560;DHT22;23398;50.928;7.084;2023-04-24T07:40:57;13.50;70.00
37560;DHT22;23398;50.928;7.084;2023-04-24T07:43:23;13.50;70.40
37560;DHT22;23398;50.928;7.084;2023-04-24T07:45:50;13.50;70.40
37560;DHT22;23398;50.928;7.084;2023-04-24T07:48:16;13.50;70.50
37560;DHT22;23398;50.928;7.084;2023-04-24T07:50:43;13.50;70.70
37560;DHT22;23398;50.928;7.084;2023-04-24T07:53:09;13.50;70.00
37560;DHT22;23398;50.928;7.084;2023-04-24T07:55:34;13.50;69.60
37560;DHT22;23398;50.928;7.084;2023-04-24T07:58:00;13.50;69.40
37560;DHT22;23398;50.928;7.084;2023-04-24T08:00:25;13.50;69.10
37560;DHT22;23398;50.928;7.084;2023-04-24T08:02:51;13.40;69.00
37560;DHT22;23398;50.928;7.084;2023-04-24T08:05:17;13.30;69.50
37560;DHT22;23398;50.928;7.084;2023-04-24T08:07:42;13.30;70.60
37560;DHT22;23398;50.928;7.084;2023-04-24T08:10:10;13.20;71.00
37560;DHT22;23398;50.928;7.084;2023-04-24T08:12:37;13.10;71.00
37560;DHT22;23398;50.928;7.084;2023-04-24T08:15:04;13.00;71.40
37560;DHT22;23398;50.928;7.084;2023-04-24T08:17:29;13.00;71.40
37560;DHT22;23398;50.928;7.084;2023-04-24T08:19:55;12.90;71.90
37560;DHT22;23398;50.928;7.084;2023-04-24T08:22:27;12.90;72.30
37560;DHT22;23398;50.928;7.084;2023-04-24T08:24:53;12.80;72.80
37560;DHT22;23398;50.928;7.084;2023-04-24T08:27:18;12.80;73.10
37560;DHT22;23398;50.928;7.084;2023-04-24T08:29:44;12.70;73.50
37560;DHT22;23398;50.928;7.084;2023-04-24T08:32:10;12.70;73.70
37560;DHT22;23398;50.928;7.084;2023-04-24T08:34:35;12.60;73.70
37560;DHT22;23398;50.928;7.084;2023-04-24T08:37:01;12.60;73.80
37560;DHT22;23398;50.928;7.084;2023-04-24T08:39:26;12.60;74.40
37560;DHT22;23398;50.928;7.084;2023-04-24T08:41:52;12.50;74.20
37560;DHT22;23398;50.928;7.084;2023-04-24T08:44:19;12.50;73.60
37560;DHT22;23398;50.928;7.084;2023-04-24T08:46:45;12.40;73.10
37560;DHT22;23398;50.928;7.084;2023-04-24T08:49:14;12.40;72.60
37560;DHT22;23398;50.928;7.084;2023-04-24T08:51:41;12.40;72.80
37560;DHT22;23398;50.928;7.084;2023-04-24T08:54:07;12.30;72.50
37560;DHT22;23398;50.928;7.084;2023-04-24T08:56:34;12.20;72.70
37560;DHT22;23398;50.928;7.084;2023-04-24T08:59:04;12.20;72.90
37560;DHT22;23398;50.928;7.084;2023-04-24T09:01:32;12.20;73.30
37560;DHT22;23398;50.928;7.084;2023-04-24T09:04:01;12.10;74.00
37560;DHT22;23398;50.928;7.084;2023-04-24T09:06:27;12.10;74.50
37560;DHT22;23398;50.928;7.084;2023-04-24T09:08:54;12.10;74.40
37560;DHT22;23398;50.928;7.084;2023-04-24T09:11:21;12.10;74.50
37560;DHT22;23398;50.928;7.084;2023-04-24T09:13:49;12.10;74.70
37560;DHT22;23398;50.928;7.084;2023-04-24T09:16:15;12.00;74.30
37560;DHT22;23398;50.928;7.084;2023-04-24T09:18:41;12.00;74.30
37560;DHT22;23398;50.928;7.084;2023-04-24T09:21:08;12.00;75.00
37560;DHT22;23398;50.928;7.084;2023-04-24T09:23:34;12.00;75.20
37560;DHT22;23398;50.928;7.084;2023-04-24T09:26:01;12.00;75.40
37560;DHT22;23398;50.928;7.084;2023-04-24T09:28:38;12.00;76.10
37560;DHT22;23398;50.928;7.084;2023-04-24T09:31:17;12.00;77.10
37560;DHT22;23398;50.928;7.084;2023-04-24T09:34:03;12.00;77.30
37560;DHT22;23398;50.928;7.084;2023-04-24T09:36:35;12.00;78.40
37560;DHT22;23398;50.928;7.084;2023-04-24T09:39:09;12.00;77.80
37560;DHT22;23398;50.928;7.084;2023-04-24T09:41:53;12.10;78.50
37560;DHT22;23398;50.928;7.084;2023-04-24T09:44:21;12.10;78.80
37560;DHT22;23398;50.928;7.084;2023-04-24T09:46:51;12.20;78.40
37560;DHT22;23398;50.928;7.084;2023-04-24T09:49:29;12.20;79.40
37560;DHT22;23398;50.928;7.084;2023-04-24T09:52:09;12.30;80.10
37560;DHT22;23398;50.928;7.084;2023-04-24T09:54:36;12.30;80.80
37560;DHT22;23398;50.928;7.084;2023-04-24T09:57:05;12.40;80.70
37560;DHT22;23398;50.928;7.084;2023-04-24T09:59:32;12.50;81.40
37560;DHT22;23398;50.928;7.084;2023-04-24T10:01:59;12.50;81.90
37560;DHT22;23398;50.928;7.084;2023-04-24T10:04:26;12.60;82.60
37560;DHT22;23398;50.928;7.084;2023-04-24T10:06:54;12.80;82.90
37560;DHT22;23398;50.928;7.084;2023-04-24T10:09:25;12.90;83.20
37560;DHT22;23398;50.928;7.084;2023-04-24T10:11:54;13.00;83.50
37560;DHT22;23398;50.928;7.084;2023-04-24T10:14:22;13.30;83.50
37560;DHT22;23398;50.928;7.084;2023-04-24T10:16:49;13.30;83.20
37560;DHT22;23398;50.928;7.084;2023-04-24T10:19:16;13.50;82.70
37560;DHT22;23398;50.928;7.084;2023-04-24T10:21:44;13.60;82.40
37560;DHT22;23398;50.928;7.084;2023-04-24T10:24:17;13.80;81.20
37560;DHT22;23398;50.928;7.084;2023-04-24T10:26:44;14.00;81.10
37560;DHT22;23398;50.928;7.084;2023-04-24T10:29:11;14.10;80.80
37560;DHT22;23398;50.928;7.084;2023-04-24T10:31:38;14.30;80.50
37560;DHT22;23398;50.928;7.084;2023-04-24T10:34:05;14.50;80.70
37560;DHT22;23398;50.928;7.084;2023-04-24T10:36:32;14.70;80.60
37560;DHT22;23398;50.928;7.084;2023-04-24T10:39:01;14.90;80.10
37560;DHT22;23398;50.928;7.084;2023-04-24T10:41:27;15.10;79.40
37560;DHT22;23398;50.928;7.084;2023-04-24T10:44:05;15.30;78.40
37560;DHT22;23398;50.928;7.084;2023-04-24T10:46:31;15.50;77.90
37560;DHT22;23398;50.928;7.084;2023-04-24T10:48:56;15.70;77.40
37560;DHT22;23398;50.928;7.084;2023-04-24T10:51:24;15.90;76.90
37560;DHT22;23398;50.928;7.084;2023-04-24T10:53:51;16.10;75.00
37560;DHT22;23398;50.928;7.084;2023-04-24T10:56:17;16.20;73.70
37560;DHT22;23398;50.928;7.084;2023-04-24T10:58:50;16.90;73.20
37560;DHT22;23398;50.928;7.084;2023-04-24T11:01:31;16.40;71.50
37560;DHT22;23398;50.928;7.084;2023-04-24T11:04:01;16.60;70.80
37560;DHT22;23398;50.928;7.084;2023-04-24T11:06:35;16.50;70.30
37560;DHT22;23398;50.928;7.084;2023-04-24T11:09:05;16.50;69.70
37560;DHT22;23398;50.928;7.084;2023-04-24T11:11:32;16.60;69.60
37560;DHT22;23398;50.928;7.084;2023-04-24T11:16:30;16.60;68.70
37560;DHT22;23398;50.928;7.084;2023-04-24T11:19:06;16.60;68.30
37560;DHT22;23398;50.928;7.084;2023-04-24T11:21:39;16.60;68.10
37560;DHT22;23398;50.928;7.084;2023-04-24T11:27:09;16.50;67.50
37560;DHT22;23398;50.928;7.084;2023-04-24T11:29:49;16.30;67.20
37560;DHT22;23398;50.928;7.084;2023-04-24T11:35:16;16.00;67.30
37560;DHT22;23398;50.928;7.084;2023-04-24T11:40:13;15.70;67.70
37560;DHT22;23398;50.928;7.084;2023-04-24T11:42:44;15.60;68.10
37560;DHT22;23398;50.928;7.084;2023-04-24T11:45:12;15.40;68.50
37560;DHT22;23398;50.928;7.084;2023-04-24T11:47:38;15.30;69.10
37560;DHT22;23398;50.928;7.084;2023-04-24T11:50:07;15.20;69.50
37560;DHT22;23398;50.928;7.084;2023-04-24T11:52:36;15.10;70.20
37560;DHT22;23398;50.928;7.084;2023-04-24T11:55:02;15.10;70.80
37560;DHT22;23398;50.928;7.084;2023-04-24T11:57:29;15.00;71.70
37560;DHT22;23398;50.928;7.084;2023-04-24T12:00:00;15.00;73.00
37560;DHT22;23398;50.928;7.084;2023-04-24T12:02:26;15.10;75.00
37560;DHT22;23398;50.928;7.084;2023-04-24T12:04:55;15.30;77.30
37560;DHT22;23398;50.928;7.084;2023-04-24T12:07:22;15.50;79.00
37560;DHT22;23398;50.928;7.084;2023-04-24T12:09:55;15.80;78.90
37560;DHT22;23398;50.928;7.084;2023-04-24T12:12:25;16.20;77.70
37560;DHT22;23398;50.928;7.084;2023-04-24T12:14:56;16.60;76.10
37560;DHT22;23398;50.928;7.084;2023-04-24T12:17:30;16.90;74.50
37560;DHT22;23398;50.928;7.084;2023-04-24T12:20:02;17.10;73.30
37560;DHT22;23398;50.928;7.084;2023-04-24T12:25:17;17.60;71.00
37560;DHT22;23398;50.928;7.084;2023-04-24T12:27:50;17.80;68.90
37560;DHT22;23398;50.928;7.084;2023-04-24T12:30:17;17.90;67.40
37560;DHT22;23398;50.928;7.084;2023-04-24T12:32:47;18.00;67.00
37560;DHT22;23398;50.928;7.084;2023-04-24T12:35:13;18.00;65.80
37560;DHT22;23398;50.928;7.084;2023-04-24T12:37:42;18.00;65.20
37560;DHT22;23398;50.928;7.084;2023-04-24T12:40:10;18.00;64.30
37560;DHT22;23398;50.928;7.084;2023-04-24T12:42:45;17.90;63.80
37560;DHT22;23398;50.928;7.084;2023-04-24T12:45:11;17.80;63.20
37560;DHT22;23398;50.928;7.084;2023-04-24T12:47:38;17.70;63.10
37560;DHT22;23398;50.928;7.084;2023-04-24T12:50:04;17.50;63.00
37560;DHT22;23398;50.928;7.084;2023-04-24T12:52:31;17.40;63.50
37560;DHT22;23398;50.928;7.084;2023-04-24T12:54:58;17.30;63.70
37560;DHT22;23398;50.928;7.084;2023-04-24T12:57:26;17.30;64.20
37560;DHT22;23398;50.928;7.084;2023-04-24T12:59:56;17.30;64.50
37560;DHT22;23398;50.928;7.084;2023-04-24T13:02:22;17.40;64.10
37560;DHT22;23398;50.928;7.084;2023-04-24T13:04:49;17.40;63.50
37560;DHT22;23398;50.928;7.084;2023-04-24T13:07:15;17.40;62.50
37560;DHT22;23398;50.928;7.084;2023-04-24T13:09:43;17.40;62.00
37560;DHT22;23398;50.928;7.084;2023-04-24T13:12:09;17.30;62.00
37560;DHT22;23398;50.928;7.084;2023-04-24T13:14:35;17.20;62.30
37560;DHT22;23398;50.928;7.084;2023-04-24T13:17:01;17.20;62.90
37560;DHT22;23398;50.928;7.084;2023-04-24T13:19:28;17.10;64.10
37560;DHT22;23398;50.928;7.084;2023-04-24T13:21:55;17.10;63.70
37560;DHT22;23398;50.928;7.084;2023-04-24T13:24:24;17.20;63.70
37560;DHT22;23398;50.928;7.084;2023-04-24T13:26:50;17.30;63.50
37560;DHT22;23398;50.928;7.084;2023-04-24T13:29:16;17.40;63.20
37560;DHT22;23398;50.928;7.084;2023-04-24T13:31:42;17.40;62.60
37560;DHT22;23398;50.928;7.084;2023-04-24T13:34:08;17.50;61.80
37560;DHT22;23398;50.928;7.084;2023-04-24T13:36:33;17.40;61.50
37560;DHT22;23398;50.928;7.084;2023-04-24T13:38:59;17.50;60.60
37560;DHT22;23398;50.928;7.084;2023-04-24T13:41:25;17.40;60.50
37560;DHT22;23398;50.928;7.084;2023-04-24T13:43:50;16.60;59.60
37560;DHT22;23398;50.928;7.084;2023-04-24T13:46:16;17.40;60.50
37560;DHT22;23398;50.928;7.084;2023-04-24T13:48:41;17.50;61.00
37560;DHT22;23398;50.928;7.084;2023-04-24T13:51:07;17.50;60.50
37560;DHT22;23398;50.928;7.084;2023-04-24T13:53:33;17.60;60.80
37560;DHT22;23398;50.928;7.084;2023-04-24T13:56:01;17.70;60.20
37560;DHT22;23398;50.928;7.084;2023-04-24T13:58:27;17.80;59.60
37560;DHT22;23398;50.928;7.084;2023-04-24T14:00:53;17.80;59.40
37560;DHT22;23398;50.928;7.084;2023-04-24T14:03:18;17.90;59.10
37560;DHT22;23398;50.928;7.084;2023-04-24T14:05:44;17.90;58.80
37560;DHT22;23398;50.928;7.084;2023-04-24T14:08:09;18.00;58.40
37560;DHT22;23398;50.928;7.084;2023-04-24T14:10:35;17.90;58.10
37560;DHT22;23398;50.928;7.084;2023-04-24T14:13:01;18.50;58.30
37560;DHT22;23398;50.928;7.084;2023-04-24T14:15:26;17.80;57.80
37560;DHT22;23398;50.928;7.084;2023-04-24T14:17:52;18.40;58.30
37560;DHT22;23398;50.928;7.084;2023-04-24T14:20:17;17.70;58.20
37560;DHT22;23398;50.928;7.084;2023-04-24T14:22:43;17.70;58.30
37560;DHT22;23398;50.928;7.084;2023-04-24T14:25:09;17.70;58.20
37560;DHT22;23398;50.928;7.084;2023-04-24T14:27:35;17.70;57.90
37560;DHT22;23398;50.928;7.084;2023-04-24T14:30:01;17.70;57.80
37560;DHT22;23398;50.928;7.084;2023-04-24T14:32:26;17.70;57.80
37560;DHT22;23398;50.928;7.084;2023-04-24T14:34:52;17.70;57.80
37560;DHT22;23398;50.928;7.084;2023-04-24T14:37:18;17.70;57.90
37560;DHT22;23398;50.928;7.084;2023-04-24T14:39:45;17.70;57.80
37560;DHT22;23398;50.928;7.084;2023-04-24T14:42:10;17.70;57.80
37560;DHT22;23398;50.928;7.084;2023-04-24T14:44:36;17.70;57.90
37560;DHT22;23398;50.928;7.084;2023-04-24T14:47:02;17.70;57.80
37560;DHT22;23398;50.928;7.084;2023-04-24T14:49:27;17.20;57.60
37560;DHT22;23398;50.928;7.084;2023-04-24T14:51:53;17.90;57.70
37560;DHT22;23398;50.928;7.084;2023-04-24T14:54:18;18.00;57.10
37560;DHT22;23398;50.928;7.084;2023-04-24T14:56:45;18.00;56.80
37560;DHT22;23398;50.928;7.084;2023-04-24T14:59:10;18.10;56.60
37560;DHT22;23398;50.928;7.084;2023-04-24T15:01:36;18.10;56.60
37560;DHT22;23398;50.928;7.084;2023-04-24T15:04:01;18.20;56.60
37560;DHT22;23398;50.928;7.084;2023-04-24T15:06:27;18.20;56.70
37560;DHT22;23398;50.928;7.084;2023-04-24T15:08:53;18.30;56.30
37560;DHT22;23398;50.928;7.084;2023-04-24T15:11:19;18.30;56.00
37560;DHT22;23398;50.928;7.084;2023-04-24T15:13:45;18.40;55.80
37560;DHT22;23398;50.928;7.084;2023-04-24T15:16:10;18.30;55.40
37560;DHT22;23398;50.928;7.084;2023-04-24T15:18:36;18.40;55.40
37560;DHT22;23398;50.928;7.084;2023-04-24T15:21:02;18.30;55.30
37560;DHT22;23398;50.928;7.084;2023-04-24T15:23:28;18.20;55.10
37560;DHT22;23398;50.928;7.084;2023-04-24T15:25:53;18.10;55.00
37560;DHT22;23398;50.928;7.084;2023-04-24T15:28:19;18.10;54.90
37560;DHT22;23398;50.928;7.084;2023-04-24T15:30:47;18.00;55.00
37560;DHT22;23398;50.928;7.084;2023-04-24T15:33:12;17.90;55.30
37560;DHT22;23398;50.928;7.084;2023-04-24T15:35:38;17.90;55.40
37560;DHT22;23398;50.928;7.084;2023-04-24T15:38:04;17.80;55.40
37560;DHT22;23398;50.928;7.084;2023-04-24T15:40:29;17.80;55.30